sensor_id;sensor_type;location;lat;lon;timestamp;temperature;humidity
7540;DHT22;3811;49.006;12.076;2022-08-25T00:01:47;17.20;1.00
7540;DHT22;3811;49.006;12.076;2022-08-25T00:04:16;17.10;1.00
7540;DHT22;3811;49.006;12.076;2022-08-25T00:06:44;17.10;1.00
7540;DHT22;3811;49.006;12.076;2022-08-25T00:09:14;17.10;1.00
7540;DHT22;3811;49.006;12.076;2022-08-25T00:14:12;17.10;1.00
7540;DHT22;3811;49.006;12.076;2022-08-25T00:19:09;17.00;1.00
7540;DHT22;3811;49.006;12.076;2022-08-25T00:21:36;17.00;1.00
7540;DHT22;3811;49.006;12.076;2022-08-25T00:24:06;17.00;1.00
7540;DHT22;3811;49.006;12.076;2022-08-25T00:26:38;16.90;1.00
7540;DHT22;3811;49.006;12.076;2022-08-25T00:31:33;16.90;1.00
7540;DHT22;3811;49.006;12.076;2022-08-25T00:34:00;16.90;99.90
7540;DHT22;3811;49.006;12.076;2022-08-25T00:36:28;16.90;1.00
7540;DHT22;3811;49.006;12.076;2022-08-25T00:41:24;16.80;99.90
7540;DHT22;3811;49.006;12.076;2022-08-25T00:43:55;16.80;1.00
7540;DHT22;3811;49.006;12.076;2022-08-25T00:46:25;16.80;16.90
7540;DHT22;3811;49.006;12.076;2022-08-25T00:48:58;16.80;99.90
7540;DHT22;3811;49.006;12.076;2022-08-25T00:51:31;16.80;99.90
7540;DHT22;3811;49.006;12.076;2022-08-25T00:56:27;16.70;99.90
7540;DHT22;3811;49.006;12.076;2022-08-25T00:58:58;16.70;20.10
7540;DHT22;3811;49.006;12.076;2022-08-25T01:01:26;16.70;37.50
7540;DHT22;3811;49.006;12.076;2022-08-25T01:08:48;16.70;99.90
7540;DHT22;3811;49.006;12.076;2022-08-25T01:13:46;16.60;99.90
7540;DHT22;3811;49.006;12.076;2022-08-25T01:16:17;16.60;99.90
7540;DHT22;3811;49.006;12.076;2022-08-25T01:18:46;16.60;99.90
7540;DHT22;3811;49.006;12.076;2022-08-25T01:21:16;16.60;99.90
7540;DHT22;3811;49.006;12.076;2022-08-25T01:23:43;16.60;1.00
7540;DHT22;3811;49.006;12.076;2022-08-25T01:26:14;16.50;1.00
7540;DHT22;3811;49.006;12.076;2022-08-25T01:28:43;16.50;99.90
7540;DHT22;3811;49.006;12.076;2022-08-25T01:31:25;16.50;14.00
7540;DHT22;3811;49.006;12.076;2022-08-25T01:36:22;16.50;99.90
7540;DHT22;3811;49.006;12.076;2022-08-25T01:38:49;16.50;99.90
7540;DHT22;3811;49.006;12.076;2022-08-25T01:43:44;16.50;99.90
7540;DHT22;3811;49.006;12.076;2022-08-25T01:56:13;16.40;1.00
7540;DHT22;3811;49.006;12.076;2022-08-25T01:58:44;16.40;80.70
7540;DHT22;3811;49.006;12.076;2022-08-25T02:01:13;16.30;99.90
7540;DHT22;3811;49.006;12.076;2022-08-25T02:03:44;16.30;99.90
7540;DHT22;3811;49.006;12.076;2022-08-25T02:06:12;16.30;1.00
7540;DHT22;3811;49.006;12.076;2022-08-25T02:16:06;16.20;99.90
7540;DHT22;3811;49.006;12.076;2022-08-25T02:38:14;16.10;1.00
7540;DHT22;3811;49.006;12.076;2022-08-25T02:50:32;16.00;39.40
7540;DHT22;3811;49.006;12.076;2022-08-25T02:52:59;16.00;1.00
7540;DHT22;3811;49.006;12.076;2022-08-25T02:57:53;15.90;99.90
7540;DHT22;3811;49.006;12.076;2022-08-25T03:10:14;15.90;99.90
7540;DHT22;3811;49.006;12.076;2022-08-25T03:15:12;15.90;99.90
7540;DHT22;3811;49.006;12.076;2022-08-25T03:17:42;15.90;99.90
7540;DHT22;3811;49.006;12.076;2022-08-25T03:25:05;15.90;99.90
7540;DHT22;3811;49.006;12.076;2022-08-25T03:27:52;15.90;1.00
7540;DHT22;3811;49.006;12.076;2022-08-25T03:40:12;15.90;99.90
7540;DHT22;3811;49.006;12.076;2022-08-25T03:42:41;15.90;99.90
7540;DHT22;3811;49.006;12.076;2022-08-25T03:45:09;15.90;1.00
7540;DHT22;3811;49.006;12.076;2022-08-25T03:50:07;15.90;1.00
7540;DHT22;3811;49.006;12.076;2022-08-25T03:55:05;15.90;99.90
7540;DHT22;3811;49.006;12.076;2022-08-25T04:02:38;15.80;99.90
7540;DHT22;3811;49.006;12.076;2022-08-25T04:05:07;15.70;1.00
7540;DHT22;3811;49.006;12.076;2022-08-25T04:10:03;15.70;1.00
7540;DHT22;3811;49.006;12.076;2022-08-25T04:12:30;15.70;1.00
7540;DHT22;3811;49.006;12.076;2022-08-25T04:14:57;17.50;99.90
7540;DHT22;3811;49.006;12.076;2022-08-25T04:27:15;15.70;99.90
7540;DHT22;3811;49.006;12.076;2022-08-25T04:34:39;15.70;99.90
7540;DHT22;3811;49.006;12.076;2022-08-25T04:37:08;15.60;99.90
7540;DHT22;3811;49.006;12.076;2022-08-25T04:39:36;15.70;99.90
7540;DHT22;3811;49.006;12.076;2022-08-25T04:42:04;15.70;99.90
7540;DHT22;3811;49.006;12.076;2022-08-25T04:44:32;15.70;99.90
7540;DHT22;3811;49.006;12.076;2022-08-25T04:49:27;15.70;99.90
7540;DHT22;3811;49.006;12.076;2022-08-25T04:54:22;15.80;99.90
7540;DHT22;3811;49.006;12.076;2022-08-25T04:56:51;15.90;99.90
7540;DHT22;3811;49.006;12.076;2022-08-25T05:01:46;19.00;1.00
7540;DHT22;3811;49.006;12.076;2022-08-25T05:04:15;16.10;1.00
7540;DHT22;3811;49.006;12.076;2022-08-25T05:14:07;16.20;1.00
7540;DHT22;3811;49.006;12.076;2022-08-25T05:21:32;16.40;1.00
7540;DHT22;3811;49.006;12.076;2022-08-25T05:24:00;16.40;99.90
7540;DHT22;3811;49.006;12.076;2022-08-25T05:26:30;16.50;1.00
7540;DHT22;3811;49.006;12.076;2022-08-25T05:28:59;16.60;99.90
7540;DHT22;3811;49.006;12.076;2022-08-25T05:31:28;16.60;99.90
7540;DHT22;3811;49.006;12.076;2022-08-25T05:36:24;16.70;99.90
7540;DHT22;3811;49.006;12.076;2022-08-25T05:38:52;16.80;99.90
7540;DHT22;3811;49.006;12.076;2022-08-25T05:41:21;16.80;1.00
7540;DHT22;3811;49.006;12.076;2022-08-25T05:43:48;16.90;99.90
7540;DHT22;3811;49.006;12.076;2022-08-25T05:46:17;16.90;99.90
7540;DHT22;3811;49.006;12.076;2022-08-25T05:48:47;17.00;48.20
7540;DHT22;3811;49.006;12.076;2022-08-25T05:51:14;17.10;99.90
7540;DHT22;3811;49.006;12.076;2022-08-25T05:53:48;17.10;1.00
7540;DHT22;3811;49.006;12.076;2022-08-25T05:56:16;17.20;99.90
7540;DHT22;3811;49.006;12.076;2022-08-25T06:01:19;17.20;78.30
7540;DHT22;3811;49.006;12.076;2022-08-25T06:04:05;17.30;1.00
7540;DHT22;3811;49.006;12.076;2022-08-25T06:06:45;17.30;99.90
7540;DHT22;3811;49.006;12.076;2022-08-25T06:11:40;17.50;1.00
7540;DHT22;3811;49.006;12.076;2022-08-25T06:14:08;17.50;1.00
7540;DHT22;3811;49.006;12.076;2022-08-25T06:16:35;20.10;99.90
7540;DHT22;3811;49.006;12.076;2022-08-25T06:19:05;17.70;99.90
7540;DHT22;3811;49.006;12.076;2022-08-25T06:21:32;17.70;99.90
7540;DHT22;3811;49.006;12.076;2022-08-25T06:23:59;17.70;1.00
7540;DHT22;3811;49.006;12.076;2022-08-25T06:28:54;17.90;1.00
7540;DHT22;3811;49.006;12.076;2022-08-25T06:31:22;18.00;1.00
7540;DHT22;3811;49.006;12.076;2022-08-25T06:36:20;18.20;99.90
7540;DHT22;3811;49.006;12.076;2022-08-25T06:46:10;18.60;1.00
7540;DHT22;3811;49.006;12.076;2022-08-25T06:48:49;18.60;1.00
7540;DHT22;3811;49.006;12.076;2022-08-25T06:51:19;18.70;99.90
7540;DHT22;3811;49.006;12.076;2022-08-25T06:53:48;18.80;99.90
7540;DHT22;3811;49.006;12.076;2022-08-25T07:01:13;19.10;1.00
7540;DHT22;3811;49.006;12.076;2022-08-25T07:03:41;19.20;1.00
7540;DHT22;3811;49.006;12.076;2022-08-25T07:06:10;19.30;99.90
7540;DHT22;3811;49.006;12.076;2022-08-25T07:11:06;19.50;99.90
7540;DHT22;3811;49.006;12.076;2022-08-25T07:13:34;19.50;99.90
7540;DHT22;3811;49.006;12.076;2022-08-25T07:16:02;19.70;99.90
7540;DHT22;3811;49.006;12.076;2022-08-25T07:18:30;19.70;99.90
7540;DHT22;3811;49.006;12.076;2022-08-25T07:23:25;19.90;99.90
7540;DHT22;3811;49.006;12.076;2022-08-25T07:25:54;20.00;72.60
7540;DHT22;3811;49.006;12.076;2022-08-25T07:28:22;20.10;1.00
7540;DHT22;3811;49.006;12.076;2022-08-25T07:33:32;20.30;1.00
7540;DHT22;3811;49.006;12.076;2022-08-25T07:36:00;20.40;1.00
7540;DHT22;3811;49.006;12.076;2022-08-25T07:38:27;20.40;99.90
7540;DHT22;3811;49.006;12.076;2022-08-25T07:41:02;20.50;99.90
7540;DHT22;3811;49.006;12.076;2022-08-25T07:43:29;20.60;99.90
7540;DHT22;3811;49.006;12.076;2022-08-25T07:50:51;20.70;99.90
7540;DHT22;3811;49.006;12.076;2022-08-25T07:55:45;21.00;79.00
7540;DHT22;3811;49.006;12.076;2022-08-25T07:58:14;21.00;1.00
7540;DHT22;3811;49.006;12.076;2022-08-25T08:00:46;21.20;1.00
7540;DHT22;3811;49.006;12.076;2022-08-25T08:03:14;21.30;99.90
7540;DHT22;3811;49.006;12.076;2022-08-25T08:05:41;21.40;99.90
7540;DHT22;3811;49.006;12.076;2022-08-25T08:10:39;21.70;99.90
7540;DHT22;3811;49.006;12.076;2022-08-25T08:15:41;22.00;99.90
7540;DHT22;3811;49.006;12.076;2022-08-25T08:25:30;22.60;1.00
7540;DHT22;3811;49.006;12.076;2022-08-25T08:32:54;22.90;1.00
7540;DHT22;3811;49.006;12.076;2022-08-25T08:37:49;23.00;1.00
7540;DHT22;3811;49.006;12.076;2022-08-25T08:40:18;23.20;1.00
7540;DHT22;3811;49.006;12.076;2022-08-25T08:43:01;23.40;99.90
7540;DHT22;3811;49.006;12.076;2022-08-25T08:45:33;23.60;99.90
7540;DHT22;3811;49.006;12.076;2022-08-25T08:48:21;23.70;99.90
7540;DHT22;3811;49.006;12.076;2022-08-25T08:51:00;23.70;99.90
7540;DHT22;3811;49.006;12.076;2022-08-25T08:53:40;23.80;99.90
7540;DHT22;3811;49.006;12.076;2022-08-25T08:56:11;23.90;99.90
7540;DHT22;3811;49.006;12.076;2022-08-25T08:58:43;24.20;99.90
7540;DHT22;3811;49.006;12.076;2022-08-25T09:01:15;28.30;99.90
7540;DHT22;3811;49.006;12.076;2022-08-25T09:03:49;24.10;99.90
7540;DHT22;3811;49.006;12.076;2022-08-25T09:06:23;24.30;99.90
7540;DHT22;3811;49.006;12.076;2022-08-25T09:08:54;24.30;99.90
7540;DHT22;3811;49.006;12.076;2022-08-25T09:11:30;24.50;99.90
7540;DHT22;3811;49.006;12.076;2022-08-25T09:14:10;24.60;99.90
7540;DHT22;3811;49.006;12.076;2022-08-25T09:16:45;24.60;99.90
7540;DHT22;3811;49.006;12.076;2022-08-25T09:19:40;24.80;99.90
7540;DHT22;3811;49.006;12.076;2022-08-25T09:22:18;24.90;98.80
7540;DHT22;3811;49.006;12.076;2022-08-25T09:24:56;25.00;47.10
7540;DHT22;3811;49.006;12.076;2022-08-25T09:27:33;24.80;48.10
7540;DHT22;3811;49.006;12.076;2022-08-25T09:30:06;25.00;56.60
7540;DHT22;3811;49.006;12.076;2022-08-25T09:32:38;25.10;29.80
7540;DHT22;3811;49.006;12.076;2022-08-25T09:35:22;25.10;55.30
7540;DHT22;3811;49.006;12.076;2022-08-25T09:37:58;25.20;60.30
7540;DHT22;3811;49.006;12.076;2022-08-25T09:40:27;25.40;7.20
7540;DHT22;3811;49.006;12.076;2022-08-25T09:42:57;25.40;17.10
7540;DHT22;3811;49.006;12.076;2022-08-25T09:45:41;25.40;15.90
7540;DHT22;3811;49.006;12.076;2022-08-25T09:48:21;25.50;21.60
7540;DHT22;3811;49.006;12.076;2022-08-25T09:50:52;25.70;13.30
7540;DHT22;3811;49.006;12.076;2022-08-25T09:55:54;25.60;26.30
7540;DHT22;3811;49.006;12.076;2022-08-25T09:58:23;25.50;32.00
7540;DHT22;3811;49.006;12.076;2022-08-25T10:01:12;25.50;1.00
7540;DHT22;3811;49.006;12.076;2022-08-25T10:03:55;25.80;1.00
7540;DHT22;3811;49.006;12.076;2022-08-25T10:06:25;25.90;4.80
7540;DHT22;3811;49.006;12.076;2022-08-25T10:08:57;26.00;1.00
7540;DHT22;3811;49.006;12.076;2022-08-25T10:11:48;26.10;1.00
7540;DHT22;3811;49.006;12.076;2022-08-25T10:14:21;26.40;1.00
7540;DHT22;3811;49.006;12.076;2022-08-25T10:17:10;26.50;1.00
7540;DHT22;3811;49.006;12.076;2022-08-25T10:19:38;26.60;1.00
7540;DHT22;3811;49.006;12.076;2022-08-25T10:22:09;26.60;1.00
7540;DHT22;3811;49.006;12.076;2022-08-25T10:24:39;26.50;1.00
7540;DHT22;3811;49.006;12.076;2022-08-25T10:27:15;26.20;1.00
7540;DHT22;3811;49.006;12.076;2022-08-25T10:30:03;26.20;1.00
7540;DHT22;3811;49.006;12.076;2022-08-25T10:32:40;26.10;1.00
7540;DHT22;3811;49.006;12.076;2022-08-25T10:35:12;25.90;1.00
7540;DHT22;3811;49.006;12.076;2022-08-25T10:37:48;25.80;1.00
7540;DHT22;3811;49.006;12.076;2022-08-25T10:40:23;25.70;1.00
7540;DHT22;3811;49.006;12.076;2022-08-25T10:43:01;25.50;1.00
7540;DHT22;3811;49.006;12.076;2022-08-25T10:45:36;25.70;1.00
7540;DHT22;3811;49.006;12.076;2022-08-25T10:51:14;25.80;1.00
7540;DHT22;3811;49.006;12.076;2022-08-25T10:53:55;25.60;1.00
7540;DHT22;3811;49.006;12.076;2022-08-25T10:56:30;25.60;1.00
7540;DHT22;3811;49.006;12.076;2022-08-25T10:59:18;25.60;1.00
7540;DHT22;3811;49.006;12.076;2022-08-25T11:02:03;25.60;1.00
7540;DHT22;3811;49.006;12.076;2022-08-25T11:04:39;25.50;1.00
7540;DHT22;3811;49.006;12.076;2022-08-25T11:07:11;25.60;1.00
7540;DHT22;3811;49.006;12.076;2022-08-25T11:09:47;25.70;1.00
7540;DHT22;3811;49.006;12.076;2022-08-25T11:12:20;25.60;1.00
7540;DHT22;3811;49.006;12.076;2022-08-25T11:14:53;25.70;1.00
7540;DHT22;3811;49.006;12.076;2022-08-25T11:17:25;25.70;1.00
7540;DHT22;3811;49.006;12.076;2022-08-25T11:19:58;25.70;1.00
7540;DHT22;3811;49.006;12.076;2022-08-25T11:22:31;25.70;3.40
7540;DHT22;3811;49.006;12.076;2022-08-25T11:25:06;25.70;1.00
7540;DHT22;3811;49.006;12.076;2022-08-25T11:27:46;25.80;1.00
7540;DHT22;3811;49.006;12.076;2022-08-25T11:30:17;25.70;1.00
7540;DHT22;3811;49.006;12.076;2022-08-25T11:32:46;25.80;1.00
7540;DHT22;3811;49.006;12.076;2022-08-25T11:35:16;25.90;1.00
7540;DHT22;3811;49.006;12.076;2022-08-25T11:37:56;25.90;1.00
7540;DHT22;3811;49.006;12.076;2022-08-25T11:40:37;25.80;1.00
7540;DHT22;3811;49.006;12.076;2022-08-25T11:43:20;25.90;1.00
7540;DHT22;3811;49.006;12.076;2022-08-25T11:46:04;26.30;1.00
7540;DHT22;3811;49.006;12.076;2022-08-25T11:48:42;26.80;1.00
7540;DHT22;3811;49.006;12.076;2022-08-25T11:51:28;27.30;1.00
7540;DHT22;3811;49.006;12.076;2022-08-25T11:54:20;27.80;1.00
7540;DHT22;3811;49.006;12.076;2022-08-25T11:56:57;28.10;1.00
7540;DHT22;3811;49.006;12.076;2022-08-25T12:00:00;28.10;1.00
7540;DHT22;3811;49.006;12.076;2022-08-25T12:02:35;28.00;1.00
7540;DHT22;3811;49.006;12.076;2022-08-25T12:05:04;27.80;1.00
7540;DHT22;3811;49.006;12.076;2022-08-25T12:08:04;27.90;1.00
7540;DHT22;3811;49.006;12.076;2022-08-25T12:10:59;27.90;1.00
7540;DHT22;3811;49.006;12.076;2022-08-25T12:13:41;27.90;1.00
7540;DHT22;3811;49.006;12.076;2022-08-25T12:16:40;28.00;1.00
7540;DHT22;3811;49.006;12.076;2022-08-25T12:19:28;27.90;1.00
7540;DHT22;3811;49.006;12.076;2022-08-25T12:21:58;27.90;1.00
7540;DHT22;3811;49.006;12.076;2022-08-25T12:24:49;27.60;1.00
7540;DHT22;3811;49.006;12.076;2022-08-25T12:27:23;27.50;1.00
7540;DHT22;3811;49.006;12.076;2022-08-25T12:29:57;27.50;1.00
7540;DHT22;3811;49.006;12.076;2022-08-25T12:32:44;27.50;1.00
7540;DHT22;3811;49.006;12.076;2022-08-25T12:35:24;27.40;1.00
7540;DHT22;3811;49.006;12.076;2022-08-25T12:38:02;27.30;1.00
7540;DHT22;3811;49.006;12.076;2022-08-25T12:40:34;27.10;1.00
7540;DHT22;3811;49.006;12.076;2022-08-25T12:43:08;27.10;1.00
7540;DHT22;3811;49.006;12.076;2022-08-25T12:45:40;27.10;1.00
7540;DHT22;3811;49.006;12.076;2022-08-25T12:48:41;27.10;1.00
7540;DHT22;3811;49.006;12.076;2022-08-25T12:51:15;27.20;1.00
7540;DHT22;3811;49.006;12.076;2022-08-25T12:53:47;27.30;1.00
7540;DHT22;3811;49.006;12.076;2022-08-25T12:56:21;27.30;1.00
7540;DHT22;3811;49.006;12.076;2022-08-25T12:58:54;27.40;1.00
7540;DHT22;3811;49.006;12.076;2022-08-25T13:01:32;27.30;1.00
7540;DHT22;3811;49.006;12.076;2022-08-25T13:04:39;27.20;1.00
7540;DHT22;3811;49.006;12.076;2022-08-25T13:07:27;27.10;1.00
7540;DHT22;3811;49.006;12.076;2022-08-25T13:10:37;26.90;1.00
7540;DHT22;3811;49.006;12.076;2022-08-25T13:13:11;26.90;1.00
7540;DHT22;3811;49.006;12.076;2022-08-25T13:15:43;26.90;1.00
7540;DHT22;3811;49.006;12.076;2022-08-25T13:18:19;26.90;1.00
7540;DHT22;3811;49.006;12.076;2022-08-25T13:20:47;26.90;1.00
7540;DHT22;3811;49.006;12.076;2022-08-25T13:23:17;26.90;1.00
7540;DHT22;3811;49.006;12.076;2022-08-25T13:25:48;26.80;1.00
7540;DHT22;3811;49.006;12.076;2022-08-25T13:28:28;26.70;1.00
7540;DHT22;3811;49.006;12.076;2022-08-25T13:31:04;26.60;1.00
7540;DHT22;3811;49.006;12.076;2022-08-25T13:33:33;26.60;1.00
7540;DHT22;3811;49.006;12.076;2022-08-25T13:36:01;27.00;1.00
7540;DHT22;3811;49.006;12.076;2022-08-25T13:38:47;27.50;1.00
7540;DHT22;3811;49.006;12.076;2022-08-25T13:41:23;27.90;1.00
7540;DHT22;3811;49.006;12.076;2022-08-25T13:43:51;28.20;1.00
7540;DHT22;3811;49.006;12.076;2022-08-25T13:46:21;28.50;1.00
7540;DHT22;3811;49.006;12.076;2022-08-25T13:48:50;28.80;1.00
7540;DHT22;3811;49.006;12.076;2022-08-25T13:51:28;28.70;1.00
7540;DHT22;3811;49.006;12.076;2022-08-25T13:53:57;28.70;1.00
7540;DHT22;3811;49.006;12.076;2022-08-25T13:56:27;28.70;1.00
7540;DHT22;3811;49.006;12.076;2022-08-25T13:58:56;26.80;1.00
7540;DHT22;3811;49.006;12.076;2022-08-25T14:01:26;28.30;1.00
7540;DHT22;3811;49.006;12.076;2022-08-25T14:04:18;28.40;1.00
7540;DHT22;3811;49.006;12.076;2022-08-25T14:06:43;28.40;1.00
7540;DHT22;3811;49.006;12.076;2022-08-25T14:09:13;28.40;1.00
7540;DHT22;3811;49.006;12.076;2022-08-25T14:11:44;28.40;1.00
7540;DHT22;3811;49.006;12.076;2022-08-25T14:14:13;28.30;1.00
7540;DHT22;3811;49.006;12.076;2022-08-25T14:16:59;28.20;1.00
7540;DHT22;3811;49.006;12.076;2022-08-25T14:19:28;28.30;1.00
7540;DHT22;3811;49.006;12.076;2022-08-25T14:21:56;28.30;1.00
7540;DHT22;3811;49.006;12.076;2022-08-25T14:24:32;28.60;1.00
7540;DHT22;3811;49.006;12.076;2022-08-25T14:27:00;28.90;1.00
7540;DHT22;3811;49.006;12.076;2022-08-25T14:29:28;29.20;1.00
7540;DHT22;3811;49.006;12.076;2022-08-25T14:31:59;29.60;1.00
7540;DHT22;3811;49.006;12.076;2022-08-25T14:34:31;29.90;1.00
7540;DHT22;3811;49.006;12.076;2022-08-25T14:36:59;30.20;1.00
7540;DHT22;3811;49.006;12.076;2022-08-25T14:46:51;30.60;1.00
7540;DHT22;3811;49.006;12.076;2022-08-25T14:49:22;30.50;1.00
7540;DHT22;3811;49.006;12.076;2022-08-25T14:51:53;30.10;1.00
7540;DHT22;3811;49.006;12.076;2022-08-25T14:54:22;29.70;1.00
7540;DHT22;3811;49.006;12.076;2022-08-25T14:56:49;29.30;1.00
7540;DHT22;3811;49.006;12.076;2022-08-25T15:01:44;28.60;1.00
7540;DHT22;3811;49.006;12.076;2022-08-25T15:04:14;28.30;1.00
7540;DHT22;3811;49.006;12.076;2022-08-25T15:06:42;25.10;1.00
7540;DHT22;3811;49.006;12.076;2022-08-25T15:09:13;27.90;1.00
7540;DHT22;3811;49.006;12.076;2022-08-25T15:11:42;27.70;1.00
7540;DHT22;3811;49.006;12.076;2022-08-25T15:14:11;27.50;1.00
7540;DHT22;3811;49.006;12.076;2022-08-25T15:16:42;27.10;1.00
7540;DHT22;3811;49.006;12.076;2022-08-25T15:19:13;26.90;1.00
7540;DHT22;3811;49.006;12.076;2022-08-25T15:21:41;26.60;1.00
7540;DHT22;3811;49.006;12.076;2022-08-25T15:24:11;26.40;1.00
7540;DHT22;3811;49.006;12.076;2022-08-25T15:26:42;26.20;1.00
7540;DHT22;3811;49.006;12.076;2022-08-25T15:36:32;25.60;1.00
7540;DHT22;3811;49.006;12.076;2022-08-25T15:41:29;25.30;1.00
7540;DHT22;3811;49.006;12.076;2022-08-25T15:46:26;25.20;1.00
7540;DHT22;3811;49.006;12.076;2022-08-25T15:48:54;25.20;1.00
7540;DHT22;3811;49.006;12.076;2022-08-25T15:58:47;25.00;1.00
7540;DHT22;3811;49.006;12.076;2022-08-25T16:01:18;25.00;1.00
7540;DHT22;3811;49.006;12.076;2022-08-25T16:06:13;24.90;7.40
7540;DHT22;3811;49.006;12.076;2022-08-25T16:11:15;24.80;44.70
7540;DHT22;3811;49.006;12.076;2022-08-25T16:16:12;24.80;55.20
7540;DHT22;3811;49.006;12.076;2022-08-25T16:18:40;24.80;85.50
7540;DHT22;3811;49.006;12.076;2022-08-25T16:21:09;24.80;84.40
7540;DHT22;3811;49.006;12.076;2022-08-25T16:26:05;24.80;99.90
7540;DHT22;3811;49.006;12.076;2022-08-25T16:31:01;24.80;94.80
7540;DHT22;3811;49.006;12.076;2022-08-25T16:36:08;24.80;99.90
7540;DHT22;3811;49.006;12.076;2022-08-25T16:41:04;24.90;99.90
7540;DHT22;3811;49.006;12.076;2022-08-25T16:46:00;24.90;90.50
7540;DHT22;3811;49.006;12.076;2022-08-25T16:48:29;24.90;42.80
7540;DHT22;3811;49.006;12.076;2022-08-25T16:53:25;24.90;57.10
7540;DHT22;3811;49.006;12.076;2022-08-25T16:56:10;25.00;46.40
7540;DHT22;3811;49.006;12.076;2022-08-25T17:01:06;24.90;99.90
7540;DHT22;3811;49.006;12.076;2022-08-25T17:03:35;24.80;99.90
7540;DHT22;3811;49.006;12.076;2022-08-25T17:11:05;24.80;99.90
7540;DHT22;3811;49.006;12.076;2022-08-25T17:13:33;24.80;99.90
7540;DHT22;3811;49.006;12.076;2022-08-25T17:18:28;24.70;99.90
7540;DHT22;3811;49.006;12.076;2022-08-25T17:21:01;24.70;99.90
7540;DHT22;3811;49.006;12.076;2022-08-25T17:33:20;24.50;1.00
7540;DHT22;3811;49.006;12.076;2022-08-25T17:35:49;24.50;1.00
7540;DHT22;3811;49.006;12.076;2022-08-25T17:38:19;24.50;1.00
7540;DHT22;3811;49.006;12.076;2022-08-25T17:43:19;24.30;1.00
7540;DHT22;3811;49.006;12.076;2022-08-25T17:45:46;24.10;1.00
7540;DHT22;3811;49.006;12.076;2022-08-25T17:50:41;24.00;20.40
7540;DHT22;3811;49.006;12.076;2022-08-25T17:53:09;24.00;1.00
7540;DHT22;3811;49.006;12.076;2022-08-25T17:55:38;24.00;99.90
7540;DHT22;3811;49.006;12.076;2022-08-25T18:05:29;23.70;82.70
7540;DHT22;3811;49.006;12.076;2022-08-25T18:12:52;23.50;99.90
7540;DHT22;3811;49.006;12.076;2022-08-25T18:17:48;23.40;99.90
7540;DHT22;3811;49.006;12.076;2022-08-25T18:25:13;23.30;99.90
7540;DHT22;3811;49.006;12.076;2022-08-25T18:27:41;23.10;99.90
7540;DHT22;3811;49.006;12.076;2022-08-25T18:30:10;23.20;99.90
7540;DHT22;3811;49.006;12.076;2022-08-25T18:35:06;23.10;99.90
7540;DHT22;3811;49.006;12.076;2022-08-25T18:40:18;23.00;99.90
7540;DHT22;3811;49.006;12.076;2022-08-25T18:42:48;22.90;99.90
7540;DHT22;3811;49.006;12.076;2022-08-25T18:45:17;22.90;99.90
7540;DHT22;3811;49.006;12.076;2022-08-25T18:47:44;22.80;99.90
7540;DHT22;3811;49.006;12.076;2022-08-25T19:00:03;22.60;99.90
7540;DHT22;3811;49.006;12.076;2022-08-25T19:02:31;22.40;1.00
7540;DHT22;3811;49.006;12.076;2022-08-25T19:12:21;22.10;1.00
7540;DHT22;3811;49.006;12.076;2022-08-25T19:19:44;21.90;1.00
7540;DHT22;3811;49.006;12.076;2022-08-25T19:27:05;21.80;1.00
7540;DHT22;3811;49.006;12.076;2022-08-25T19:34:32;21.70;17.50
7540;DHT22;3811;49.006;12.076;2022-08-25T19:37:02;21.70;63.50
7540;DHT22;3811;49.006;12.076;2022-08-25T19:46:52;21.50;99.90
7540;DHT22;3811;49.006;12.076;2022-08-25T19:49:22;21.40;99.90
7540;DHT22;3811;49.006;12.076;2022-08-25T19:51:52;21.40;99.90
7540;DHT22;3811;49.006;12.076;2022-08-25T19:54:25;21.40;99.90
7540;DHT22;3811;49.006;12.076;2022-08-25T19:56:53;21.30;99.90
7540;DHT22;3811;49.006;12.076;2022-08-25T20:11:40;21.10;99.90
7540;DHT22;3811;49.006;12.076;2022-08-25T20:16:35;21.00;99.90
7540;DHT22;3811;49.006;12.076;2022-08-25T20:19:02;21.00;1.00
7540;DHT22;3811;49.006;12.076;2022-08-25T20:21:32;20.90;1.00
7540;DHT22;3811;49.006;12.076;2022-08-25T20:23:59;20.90;1.00
7540;DHT22;3811;49.006;12.076;2022-08-25T20:26:45;20.90;1.00
7540;DHT22;3811;49.006;12.076;2022-08-25T20:29:12;20.90;1.00
7540;DHT22;3811;49.006;12.076;2022-08-25T20:31:39;20.80;1.00
7540;DHT22;3811;49.006;12.076;2022-08-25T20:34:06;20.80;1.00
7540;DHT22;3811;49.006;12.076;2022-08-25T20:36:34;20.70;1.00
7540;DHT22;3811;49.006;12.076;2022-08-25T20:43:57;20.60;99.90
7540;DHT22;3811;49.006;12.076;2022-08-25T20:48:52;20.60;92.90
7540;DHT22;3811;49.006;12.076;2022-08-25T20:56:16;20.40;92.40
7540;DHT22;3811;49.006;12.076;2022-08-25T20:58:44;20.40;99.90
7540;DHT22;3811;49.006;12.076;2022-08-25T21:01:16;20.40;99.90
7540;DHT22;3811;49.006;12.076;2022-08-25T21:06:11;20.30;99.90
7540;DHT22;3811;49.006;12.076;2022-08-25T21:11:09;20.30;99.90
7540;DHT22;3811;49.006;12.076;2022-08-25T21:13:37;20.30;99.90
7540;DHT22;3811;49.006;12.076;2022-08-25T21:16:05;20.20;99.90
7540;DHT22;3811;49.006;12.076;2022-08-25T21:18:34;20.20;99.90
7540;DHT22;3811;49.006;12.076;2022-08-25T21:21:03;20.20;1.00
7540;DHT22;3811;49.006;12.076;2022-08-25T21:26:04;20.30;99.90
7540;DHT22;3811;49.006;12.076;2022-08-25T21:28:31;20.10;99.90
7540;DHT22;3811;49.006;12.076;2022-08-25T21:33:26;20.10;99.90
7540;DHT22;3811;49.006;12.076;2022-08-25T21:35:54;20.10;99.90
7540;DHT22;3811;49.006;12.076;2022-08-25T21:43:16;20.10;1.00
7540;DHT22;3811;49.006;12.076;2022-08-25T21:53:08;20.00;1.00
7540;DHT22;3811;49.006;12.076;2022-08-25T21:55:37;20.00;1.00
7540;DHT22;3811;49.006;12.076;2022-08-25T22:00:31;21.70;1.00
7540;DHT22;3811;49.006;12.076;2022-08-25T22:02:59;19.90;1.00
7540;DHT22;3811;49.006;12.076;2022-08-25T22:07:54;19.80;1.00
7540;DHT22;3811;49.006;12.076;2022-08-25T22:10:22;19.70;1.00
7540;DHT22;3811;49.006;12.076;2022-08-25T22:17:45;19.70;99.90
7540;DHT22;3811;49.006;12.076;2022-08-25T22:20:12;19.60;99.90
7540;DHT22;3811;49.006;12.076;2022-08-25T22:22:40;19.60;99.90
7540;DHT22;3811;49.006;12.076;2022-08-25T22:27:36;19.50;99.90
7540;DHT22;3811;49.006;12.076;2022-08-25T22:30:03;19.50;99.90
7540;DHT22;3811;49.006;12.076;2022-08-25T22:34:58;19.40;99.90
7540;DHT22;3811;49.006;12.076;2022-08-25T22:37:25;19.40;1.00
7540;DHT22;3811;49.006;12.076;2022-08-25T22:52:13;19.20;1.00
7540;DHT22;3811;49.006;12.076;2022-08-25T22:57:09;19.10;1.00
7540;DHT22;3811;49.006;12.076;2022-08-25T23:02:06;19.10;1.00
7540;DHT22;3811;49.006;12.076;2022-08-25T23:07:00;19.10;1.00
7540;DHT22;3811;49.006;12.076;2022-08-25T23:09:28;19.00;99.90
7540;DHT22;3811;49.006;12.076;2022-08-25T23:14:23;19.00;99.90
7540;DHT22;3811;49.006;12.076;2022-08-25T23:19:18;19.00;99.90
7540;DHT22;3811;49.006;12.076;2022-08-25T23:21:45;19.00;99.90
7540;DHT22;3811;49.006;12.076;2022-08-25T23:24:30;18.90;99.90
7540;DHT22;3811;49.006;12.076;2022-08-25T23:26:58;18.90;1.00
7540;DHT22;3811;49.006;12.076;2022-08-25T23:29:25;18.80;99.90
7540;DHT22;3811;49.006;12.076;2022-08-25T23:36:49;18.80;99.90
7540;DHT22;3811;49.006;12.076;2022-08-25T23:39:16;18.80;99.90
7540;DHT22;3811;49.006;12.076;2022-08-25T23:44:10;18.80;99.90
7540;DHT22;3811;49.006;12.076;2022-08-25T23:46:37;18.70;1.00
7540;DHT22;3811;49.006;12.076;2022-08-25T23:49:06;18.70;99.90
7540;DHT22;3811;49.006;12.076;2022-08-25T23:51:35;18.60;99.90
7540;DHT22;3811;49.006;12.076;2022-08-25T23:54:05;18.60;99.90